Etusivu
METAR-TAF:

METAR-TAF

Lentoasemat :

Staples Municipal Airport

Staples, Minnesota, Yhdysvallat

Leveyspiiri: 46-22-51N, Pituuspiiri: 094-48-24W, korkeus merenpinnasta: 392 m

Tämänhetkinen sää

Tämä raportti tehtiin 23 minuuttia sitten, kello 16.15 UTC
Tuuli 3 kn lännestä
Lämpötila 4°C
Kosteus 81%
Ilmanpaine 1020 hPa
Näkyvyys: 16.1 km
Pilvistä 1400 ft:n korkeudessa

METAR: KSAZ 161615Z AUTO 27003KT 10SM OVC014 04/01 A3013 RMK AO2

Aika: 11:38 (16:38 UTC)


TAF: puuttuu

Säähavainnot ja -ennusteet yli 4000 lentoasemalta (METAR- ja TAF-raportit).

Käytössä olevat sääasemat on merkitty karttaan keltaisilla ja punaisilla pisteillä.

Aseta hiiri pisteen päälle nähdäksesi sääaseman nimen.

Klikkaa sitten nähdäksesi säähavainnot ja -ennusteet.

Kartan vaihtaminen: klikkaa mustalla rastilla varustettuja vihreitä pisteitä, niin voit zoomata sisään; viivalla varustettua vihreää pistettä, niin voit zoomata ulos tai vihreitä nuolia, niin pääset viereisille kartoille.


METAR-TAF: